Amherst, NH (03031)

9:58 PM EST on February 09, 2016 (GMT -0500)
Amherst Hills | | Change Station
CLOSE
Current Station
Personal Weather Station
Location: Amherst, NH
Elevation: 325 ft
Nearby Weather Stations

Elev 325 ft 42.86 °N, 71.62 °W | Updated 3 minutes ago

Partly Cloudy
Partly Cloudy
16.5 °F
Feels Like 16 °F
N
0.0
Wind Variable Wind from North
Gusts 0.0 mph

Today
High -- | Low -- °F
--% Chance of Precip.
Yesterday
High -- | Low -- °F
Precip. -- in
Pressure 29.63 in
Visibility 10.0 miles
Clouds Clear
Windchill 16 °F
Dew Point 8 °F
Humidity 69%
Rainfall 0.00 in
Snow Depth Not available.
6:52 AM 5:09 PM
Waxing Crescent, 3% visible
METAR KASH 100255Z 30003KT 10SM CLR M10/M11 A2963 RMK AO2 52003 PWINO FZRANO RVRNO
Pressure 29.63 in
Visibility 10.0 miles
Clouds Clear
Windchill 16 °F
Dew Point 8 °F
Humidity 69%
Rainfall 0.00 in
Snow Depth Not available.
6:52 AM 5:09 PM
Waxing Crescent, 3% visible
METAR KASH 100255Z 30003KT 10SM CLR M10/M11 A2963 RMK AO2 52003 PWINO FZRANO RVRNO

10-Day Weather Forecast

Almanac

Astronomy

Feb. 09, 2016 Rise Set
Actual Time
Civil Twilight
Nautical Twilight
Astronomical Twilight
Moon
Length of Visible Light
Length of Day
Tomorrow will be .
, % of the Moon is Illuminated

Today's Extremes

State Highs State Lows

Community

WunderPhotos

Upload Photos

1,891,786 photos uploaded!

WunderBlog® & News

Nearby

Air Quality

  Air Quality AQ Index Pollutant
Not available.

Snow Depth

Station Depth Elevation

Earthquake Activity

City Distance Mag. Time & Date
Minimum magnitude displayed is 2.5.

Coastal Water Temperatures

Place Temperature

Stations

Nearby Weather Stations

Station Location Temp. Windchill Dew Point Humidity Wind Precip. Elev Updated Type
                   

Watches & Warnings

There are currently no watches in effect.